sensor_id;sensor_type;location;lat;lon;timestamp;temperature;humidity
25556;DHT22;13447;57.174;-2.112;2023-03-23T00:01:53;8.20;99.90
25556;DHT22;13447;57.174;-2.112;2023-03-23T00:04:19;8.20;99.90
25556;DHT22;13447;57.174;-2.112;2023-03-23T00:06:46;8.20;99.90
25556;DHT22;13447;57.174;-2.112;2023-03-23T00:09:14;8.20;99.90
25556;DHT22;13447;57.174;-2.112;2023-03-23T00:11:42;8.20;99.90
25556;DHT22;13447;57.174;-2.112;2023-03-23T00:14:09;8.20;99.90
25556;DHT22;13447;57.174;-2.112;2023-03-23T00:16:38;8.20;99.90
25556;DHT22;13447;57.174;-2.112;2023-03-23T00:19:10;8.20;99.90
25556;DHT22;13447;57.174;-2.112;2023-03-23T00:21:38;8.20;99.90
25556;DHT22;13447;57.174;-2.112;2023-03-23T00:24:11;8.20;99.90
25556;DHT22;13447;57.174;-2.112;2023-03-23T00:26:38;8.20;99.90
25556;DHT22;13447;57.174;-2.112;2023-03-23T00:29:06;8.20;99.90
25556;DHT22;13447;57.174;-2.112;2023-03-23T00:31:33;8.20;99.90
25556;DHT22;13447;57.174;-2.112;2023-03-23T00:34:01;8.20;99.90
25556;DHT22;13447;57.174;-2.112;2023-03-23T00:36:27;8.20;99.90
25556;DHT22;13447;57.174;-2.112;2023-03-23T00:38:53;8.10;99.90
25556;DHT22;13447;57.174;-2.112;2023-03-23T00:41:23;8.10;99.90
25556;DHT22;13447;57.174;-2.112;2023-03-23T00:43:52;8.20;99.90
25556;DHT22;13447;57.174;-2.112;2023-03-23T00:46:18;8.20;99.90
25556;DHT22;13447;57.174;-2.112;2023-03-23T00:48:46;8.20;99.90
25556;DHT22;13447;57.174;-2.112;2023-03-23T00:51:12;8.20;99.90
25556;DHT22;13447;57.174;-2.112;2023-03-23T00:53:40;8.20;99.90
25556;DHT22;13447;57.174;-2.112;2023-03-23T00:56:07;8.20;99.90
25556;DHT22;13447;57.174;-2.112;2023-03-23T00:58:33;8.20;99.90
25556;DHT22;13447;57.174;-2.112;2023-03-23T01:00:58;8.20;99.90
25556;DHT22;13447;57.174;-2.112;2023-03-23T01:03:24;8.10;99.90
25556;DHT22;13447;57.174;-2.112;2023-03-23T01:05:52;8.10;99.90
25556;DHT22;13447;57.174;-2.112;2023-03-23T01:08:18;8.10;99.90
25556;DHT22;13447;57.174;-2.112;2023-03-23T01:10:44;8.10;99.90
25556;DHT22;13447;57.174;-2.112;2023-03-23T01:13:10;8.10;99.90
25556;DHT22;13447;57.174;-2.112;2023-03-23T01:15:36;8.10;99.90
25556;DHT22;13447;57.174;-2.112;2023-03-23T01:18:02;8.10;99.90
25556;DHT22;13447;57.174;-2.112;2023-03-23T01:20:28;8.10;99.90
25556;DHT22;13447;57.174;-2.112;2023-03-23T01:22:57;8.10;99.90
25556;DHT22;13447;57.174;-2.112;2023-03-23T01:25:26;8.10;99.90
25556;DHT22;13447;57.174;-2.112;2023-03-23T01:27:52;8.10;99.90
25556;DHT22;13447;57.174;-2.112;2023-03-23T01:30:18;8.00;99.90
25556;DHT22;13447;57.174;-2.112;2023-03-23T01:32:44;8.10;99.90
25556;DHT22;13447;57.174;-2.112;2023-03-23T01:35:09;8.00;99.90
25556;DHT22;13447;57.174;-2.112;2023-03-23T01:37:37;8.00;99.90
25556;DHT22;13447;57.174;-2.112;2023-03-23T01:40:03;8.00;99.90
25556;DHT22;13447;57.174;-2.112;2023-03-23T01:42:31;8.00;99.90
25556;DHT22;13447;57.174;-2.112;2023-03-23T01:45:39;8.00;99.90
25556;DHT22;13447;57.174;-2.112;2023-03-23T01:47:49;7.90;99.90
25556;DHT22;13447;57.174;-2.112;2023-03-23T01:50:18;8.00;99.90
25556;DHT22;13447;57.174;-2.112;2023-03-23T01:52:45;7.90;99.90
25556;DHT22;13447;57.174;-2.112;2023-03-23T01:55:11;8.00;99.90
25556;DHT22;13447;57.174;-2.112;2023-03-23T01:57:37;7.90;99.90
25556;DHT22;13447;57.174;-2.112;2023-03-23T02:00:05;7.90;99.90
25556;DHT22;13447;57.174;-2.112;2023-03-23T02:02:34;7.90;99.90
25556;DHT22;13447;57.174;-2.112;2023-03-23T02:05:02;7.90;99.90
25556;DHT22;13447;57.174;-2.112;2023-03-23T02:07:29;7.90;99.90
25556;DHT22;13447;57.174;-2.112;2023-03-23T02:09:56;7.80;99.90
25556;DHT22;13447;57.174;-2.112;2023-03-23T02:12:22;7.90;99.90
25556;DHT22;13447;57.174;-2.112;2023-03-23T02:14:48;7.80;99.90
25556;DHT22;13447;57.174;-2.112;2023-03-23T02:30:01;7.80;99.90
25556;DHT22;13447;57.174;-2.112;2023-03-23T02:35:20;7.80;1.00
25556;DHT22;13447;57.174;-2.112;2023-03-23T02:37:51;7.80;99.90
25556;DHT22;13447;57.174;-2.112;2023-03-23T02:40:22;7.80;99.90
25556;DHT22;13447;57.174;-2.112;2023-03-23T02:42:52;7.80;1.00
25556;DHT22;13447;57.174;-2.112;2023-03-23T02:45:19;7.80;1.00
25556;DHT22;13447;57.174;-2.112;2023-03-23T02:47:46;7.80;1.00
25556;DHT22;13447;57.174;-2.112;2023-03-23T02:50:13;7.70;1.00
25556;DHT22;13447;57.174;-2.112;2023-03-23T02:52:40;7.70;1.00
25556;DHT22;13447;57.174;-2.112;2023-03-23T02:55:07;7.70;1.00
25556;DHT22;13447;57.174;-2.112;2023-03-23T02:57:33;7.80;1.00
25556;DHT22;13447;57.174;-2.112;2023-03-23T03:00:00;7.80;1.00
25556;DHT22;13447;57.174;-2.112;2023-03-23T03:02:27;7.70;1.00
25556;DHT22;13447;57.174;-2.112;2023-03-23T03:09:58;7.70;1.00
25556;DHT22;13447;57.174;-2.112;2023-03-23T03:13:30;7.70;1.00
25556;DHT22;13447;57.174;-2.112;2023-03-23T03:15:28;7.70;99.90
25556;DHT22;13447;57.174;-2.112;2023-03-23T03:17:58;7.70;99.90
25556;DHT22;13447;57.174;-2.112;2023-03-23T03:20:26;7.70;99.90
25556;DHT22;13447;57.174;-2.112;2023-03-23T03:22:53;7.70;99.90
25556;DHT22;13447;57.174;-2.112;2023-03-23T03:25:19;7.60;99.90
25556;DHT22;13447;57.174;-2.112;2023-03-23T03:27:45;7.60;99.90
25556;DHT22;13447;57.174;-2.112;2023-03-23T03:30:15;7.60;99.90
25556;DHT22;13447;57.174;-2.112;2023-03-23T03:32:46;7.60;99.90
25556;DHT22;13447;57.174;-2.112;2023-03-23T03:35:14;7.60;99.90
25556;DHT22;13447;57.174;-2.112;2023-03-23T03:37:41;7.60;99.90
25556;DHT22;13447;57.174;-2.112;2023-03-23T03:40:08;7.50;99.90
25556;DHT22;13447;57.174;-2.112;2023-03-23T03:42:40;7.50;99.90
25556;DHT22;13447;57.174;-2.112;2023-03-23T03:45:07;7.50;99.90
25556;DHT22;13447;57.174;-2.112;2023-03-23T03:47:33;7.50;99.90
25556;DHT22;13447;57.174;-2.112;2023-03-23T03:49:59;7.40;99.90
25556;DHT22;13447;57.174;-2.112;2023-03-23T03:52:25;7.40;99.90
25556;DHT22;13447;57.174;-2.112;2023-03-23T03:54:53;7.30;99.90
25556;DHT22;13447;57.174;-2.112;2023-03-23T03:57:19;7.30;99.90
25556;DHT22;13447;57.174;-2.112;2023-03-23T03:59:44;7.30;99.90
25556;DHT22;13447;57.174;-2.112;2023-03-23T04:02:11;7.20;99.90
25556;DHT22;13447;57.174;-2.112;2023-03-23T04:04:39;7.30;99.90
25556;DHT22;13447;57.174;-2.112;2023-03-23T04:07:05;7.20;99.90
25556;DHT22;13447;57.174;-2.112;2023-03-23T04:09:31;7.20;99.90
25556;DHT22;13447;57.174;-2.112;2023-03-23T04:11:56;7.20;99.90
25556;DHT22;13447;57.174;-2.112;2023-03-23T04:14:22;7.10;99.90
25556;DHT22;13447;57.174;-2.112;2023-03-23T04:16:48;7.10;99.90
25556;DHT22;13447;57.174;-2.112;2023-03-23T04:19:17;7.10;99.90
25556;DHT22;13447;57.174;-2.112;2023-03-23T04:21:43;7.00;99.90
25556;DHT22;13447;57.174;-2.112;2023-03-23T04:24:11;7.00;99.90
25556;DHT22;13447;57.174;-2.112;2023-03-23T04:26:37;7.00;99.90
25556;DHT22;13447;57.174;-2.112;2023-03-23T04:29:05;6.90;99.90
25556;DHT22;13447;57.174;-2.112;2023-03-23T04:31:31;6.90;99.90
25556;DHT22;13447;57.174;-2.112;2023-03-23T04:33:57;6.90;99.90
25556;DHT22;13447;57.174;-2.112;2023-03-23T04:36:25;6.90;99.90
25556;DHT22;13447;57.174;-2.112;2023-03-23T04:38:50;6.90;99.90
25556;DHT22;13447;57.174;-2.112;2023-03-23T04:41:20;6.90;99.90
25556;DHT22;13447;57.174;-2.112;2023-03-23T04:43:46;6.90;99.90
25556;DHT22;13447;57.174;-2.112;2023-03-23T04:46:17;6.80;99.90
25556;DHT22;13447;57.174;-2.112;2023-03-23T04:48:44;6.80;99.90
25556;DHT22;13447;57.174;-2.112;2023-03-23T04:51:10;6.90;99.90
25556;DHT22;13447;57.174;-2.112;2023-03-23T04:53:37;6.80;99.90
25556;DHT22;13447;57.174;-2.112;2023-03-23T04:56:03;6.80;99.90
25556;DHT22;13447;57.174;-2.112;2023-03-23T04:58:29;6.80;99.90
25556;DHT22;13447;57.174;-2.112;2023-03-23T05:00:55;6.80;99.90
25556;DHT22;13447;57.174;-2.112;2023-03-23T05:03:20;6.80;99.90
25556;DHT22;13447;57.174;-2.112;2023-03-23T05:05:46;6.80;99.90
25556;DHT22;13447;57.174;-2.112;2023-03-23T05:08:20;6.70;99.90
25556;DHT22;13447;57.174;-2.112;2023-03-23T05:10:49;6.70;99.90
25556;DHT22;13447;57.174;-2.112;2023-03-23T05:13:15;6.70;99.90
25556;DHT22;13447;57.174;-2.112;2023-03-23T05:15:41;6.70;99.90
25556;DHT22;13447;57.174;-2.112;2023-03-23T05:18:07;6.70;99.90
25556;DHT22;13447;57.174;-2.112;2023-03-23T05:20:34;6.80;99.90
25556;DHT22;13447;57.174;-2.112;2023-03-23T05:23:00;6.80;99.90
25556;DHT22;13447;57.174;-2.112;2023-03-23T05:25:26;6.80;99.90
25556;DHT22;13447;57.174;-2.112;2023-03-23T05:27:51;6.70;99.90
25556;DHT22;13447;57.174;-2.112;2023-03-23T05:30:19;6.70;99.90
25556;DHT22;13447;57.174;-2.112;2023-03-23T05:32:44;6.70;99.90
25556;DHT22;13447;57.174;-2.112;2023-03-23T05:35:11;6.70;99.90
25556;DHT22;13447;57.174;-2.112;2023-03-23T05:37:37;6.70;99.90
25556;DHT22;13447;57.174;-2.112;2023-03-23T05:40:04;6.80;99.90
25556;DHT22;13447;57.174;-2.112;2023-03-23T05:42:32;6.80;99.90
25556;DHT22;13447;57.174;-2.112;2023-03-23T05:44:58;6.80;99.90
25556;DHT22;13447;57.174;-2.112;2023-03-23T05:47:24;6.90;99.90
25556;DHT22;13447;57.174;-2.112;2023-03-23T05:49:51;6.90;99.90
25556;DHT22;13447;57.174;-2.112;2023-03-23T05:52:17;6.90;99.90
25556;DHT22;13447;57.174;-2.112;2023-03-23T05:54:43;6.90;99.90
25556;DHT22;13447;57.174;-2.112;2023-03-23T05:57:10;6.90;99.90
25556;DHT22;13447;57.174;-2.112;2023-03-23T05:59:36;7.00;99.90
25556;DHT22;13447;57.174;-2.112;2023-03-23T06:02:02;7.00;99.90
25556;DHT22;13447;57.174;-2.112;2023-03-23T06:04:28;7.00;99.90
25556;DHT22;13447;57.174;-2.112;2023-03-23T06:06:53;7.00;99.90
25556;DHT22;13447;57.174;-2.112;2023-03-23T06:09:19;7.00;99.90
25556;DHT22;13447;57.174;-2.112;2023-03-23T06:11:46;7.00;99.90
25556;DHT22;13447;57.174;-2.112;2023-03-23T06:14:13;7.10;99.90
25556;DHT22;13447;57.174;-2.112;2023-03-23T06:16:38;7.00;99.90
25556;DHT22;13447;57.174;-2.112;2023-03-23T06:19:04;7.10;99.90
25556;DHT22;13447;57.174;-2.112;2023-03-23T06:21:30;7.00;99.90
25556;DHT22;13447;57.174;-2.112;2023-03-23T06:23:57;7.00;99.90
25556;DHT22;13447;57.174;-2.112;2023-03-23T06:26:34;7.00;99.90
25556;DHT22;13447;57.174;-2.112;2023-03-23T06:29:00;7.10;99.90
25556;DHT22;13447;57.174;-2.112;2023-03-23T06:31:26;7.10;99.90
25556;DHT22;13447;57.174;-2.112;2023-03-23T06:33:52;7.10;99.90
25556;DHT22;13447;57.174;-2.112;2023-03-23T06:36:18;7.20;99.90
25556;DHT22;13447;57.174;-2.112;2023-03-23T06:38:44;7.20;99.90
25556;DHT22;13447;57.174;-2.112;2023-03-23T06:41:10;7.10;99.90
25556;DHT22;13447;57.174;-2.112;2023-03-23T06:43:36;7.20;99.90
25556;DHT22;13447;57.174;-2.112;2023-03-23T06:46:07;7.20;99.90
25556;DHT22;13447;57.174;-2.112;2023-03-23T06:48:33;7.20;99.90
25556;DHT22;13447;57.174;-2.112;2023-03-23T06:50:59;7.20;99.90
25556;DHT22;13447;57.174;-2.112;2023-03-23T06:53:25;7.20;99.90
25556;DHT22;13447;57.174;-2.112;2023-03-23T06:55:51;7.30;99.90
25556;DHT22;13447;57.174;-2.112;2023-03-23T06:58:16;7.30;99.90
25556;DHT22;13447;57.174;-2.112;2023-03-23T07:00:42;7.30;99.90
25556;DHT22;13447;57.174;-2.112;2023-03-23T07:03:08;7.30;91.20
25556;DHT22;13447;57.174;-2.112;2023-03-23T07:05:34;7.40;90.20
25556;DHT22;13447;57.174;-2.112;2023-03-23T07:08:00;7.40;84.00
25556;DHT22;13447;57.174;-2.112;2023-03-23T07:10:26;7.50;57.50
25556;DHT22;13447;57.174;-2.112;2023-03-23T07:12:52;7.50;47.10
25556;DHT22;13447;57.174;-2.112;2023-03-23T07:15:18;7.50;36.60
25556;DHT22;13447;57.174;-2.112;2023-03-23T07:17:44;7.50;21.50
25556;DHT22;13447;57.174;-2.112;2023-03-23T07:20:10;7.60;5.20
25556;DHT22;13447;57.174;-2.112;2023-03-23T07:22:36;7.60;1.00
25556;DHT22;13447;57.174;-2.112;2023-03-23T07:25:03;7.60;1.00
25556;DHT22;13447;57.174;-2.112;2023-03-23T07:27:30;7.60;1.00
25556;DHT22;13447;57.174;-2.112;2023-03-23T07:29:56;7.60;1.00
25556;DHT22;13447;57.174;-2.112;2023-03-23T07:32:23;7.70;1.00
25556;DHT22;13447;57.174;-2.112;2023-03-23T07:34:49;7.70;1.00
25556;DHT22;13447;57.174;-2.112;2023-03-23T07:37:15;7.70;1.00
25556;DHT22;13447;57.174;-2.112;2023-03-23T07:39:42;7.80;1.00
25556;DHT22;13447;57.174;-2.112;2023-03-23T07:42:08;7.80;1.00
25556;DHT22;13447;57.174;-2.112;2023-03-23T07:44:34;7.80;1.00
25556;DHT22;13447;57.174;-2.112;2023-03-23T07:46:59;7.90;1.00
25556;DHT22;13447;57.174;-2.112;2023-03-23T07:49:25;7.90;1.00
25556;DHT22;13447;57.174;-2.112;2023-03-23T07:51:52;7.90;1.00
25556;DHT22;13447;57.174;-2.112;2023-03-23T07:54:17;7.90;1.00
25556;DHT22;13447;57.174;-2.112;2023-03-23T07:56:44;7.90;1.00
25556;DHT22;13447;57.174;-2.112;2023-03-23T07:59:10;8.00;1.00
25556;DHT22;13447;57.174;-2.112;2023-03-23T08:01:36;8.00;1.00
25556;DHT22;13447;57.174;-2.112;2023-03-23T08:04:02;8.10;1.00
25556;DHT22;13447;57.174;-2.112;2023-03-23T08:06:28;8.10;1.00
25556;DHT22;13447;57.174;-2.112;2023-03-23T08:08:53;8.20;1.00
25556;DHT22;13447;57.174;-2.112;2023-03-23T13:42:50;16.70;99.90
25556;DHT22;13447;57.174;-2.112;2023-03-23T13:51:52;15.90;99.90
25556;DHT22;13447;57.174;-2.112;2023-03-23T13:53:45;15.80;99.90
25556;DHT22;13447;57.174;-2.112;2023-03-23T13:58:45;15.50;99.90
25556;DHT22;13447;57.174;-2.112;2023-03-23T14:01:13;15.30;99.90
25556;DHT22;13447;57.174;-2.112;2023-03-23T14:03:42;15.00;99.90
25556;DHT22;13447;57.174;-2.112;2023-03-23T14:06:15;14.90;99.90
25556;DHT22;13447;57.174;-2.112;2023-03-23T14:08:43;14.80;99.90
25556;DHT22;13447;57.174;-2.112;2023-03-23T14:16:52;14.70;99.90
25556;DHT22;13447;57.174;-2.112;2023-03-23T14:19:00;14.50;99.90
25556;DHT22;13447;57.174;-2.112;2023-03-23T14:21:31;14.10;99.90
25556;DHT22;13447;57.174;-2.112;2023-03-23T14:24:01;14.00;99.90
25556;DHT22;13447;57.174;-2.112;2023-03-23T14:26:27;14.00;99.90
25556;DHT22;13447;57.174;-2.112;2023-03-23T14:28:53;14.20;99.90
25556;DHT22;13447;57.174;-2.112;2023-03-23T14:31:22;14.40;99.90
25556;DHT22;13447;57.174;-2.112;2023-03-23T14:33:49;14.40;99.90
25556;DHT22;13447;57.174;-2.112;2023-03-23T14:36:20;14.20;99.90
25556;DHT22;13447;57.174;-2.112;2023-03-23T14:38:46;14.00;99.90
25556;DHT22;13447;57.174;-2.112;2023-03-23T14:41:11;13.60;99.90
25556;DHT22;13447;57.174;-2.112;2023-03-23T14:43:38;13.60;99.90
25556;DHT22;13447;57.174;-2.112;2023-03-23T14:48:30;13.20;99.90
25556;DHT22;13447;57.174;-2.112;2023-03-23T14:50:57;13.10;99.90
25556;DHT22;13447;57.174;-2.112;2023-03-23T14:56:03;13.20;99.90
25556;DHT22;13447;57.174;-2.112;2023-03-23T14:58:30;13.40;99.90
25556;DHT22;13447;57.174;-2.112;2023-03-23T15:01:38;13.40;99.90
25556;DHT22;13447;57.174;-2.112;2023-03-23T15:04:01;13.20;99.90
25556;DHT22;13447;57.174;-2.112;2023-03-23T15:06:29;12.80;99.90
25556;DHT22;13447;57.174;-2.112;2023-03-23T15:08:56;12.70;99.90
25556;DHT22;13447;57.174;-2.112;2023-03-23T15:11:24;12.40;1.00
25556;DHT22;13447;57.174;-2.112;2023-03-23T15:13:52;12.40;1.00
25556;DHT22;13447;57.174;-2.112;2023-03-23T15:16:21;11.90;1.00
25556;DHT22;13447;57.174;-2.112;2023-03-23T15:19:01;11.70;1.00
25556;DHT22;13447;57.174;-2.112;2023-03-23T15:21:28;11.60;1.00
25556;DHT22;13447;57.174;-2.112;2023-03-23T15:23:55;11.40;1.00
25556;DHT22;13447;57.174;-2.112;2023-03-23T15:26:31;11.40;1.00
25556;DHT22;13447;57.174;-2.112;2023-03-23T15:29:09;11.50;1.00
25556;DHT22;13447;57.174;-2.112;2023-03-23T15:31:39;11.80;1.00
25556;DHT22;13447;57.174;-2.112;2023-03-23T15:34:05;11.80;1.00
25556;DHT22;13447;57.174;-2.112;2023-03-23T15:36:33;11.90;1.00
25556;DHT22;13447;57.174;-2.112;2023-03-23T15:38:59;11.80;1.00
25556;DHT22;13447;57.174;-2.112;2023-03-23T15:41:26;11.90;1.00
25556;DHT22;13447;57.174;-2.112;2023-03-23T15:43:53;11.70;1.00
25556;DHT22;13447;57.174;-2.112;2023-03-23T15:46:21;11.70;1.00
25556;DHT22;13447;57.174;-2.112;2023-03-23T15:51:12;11.20;1.00
25556;DHT22;13447;57.174;-2.112;2023-03-23T15:53:38;11.20;1.00
25556;DHT22;13447;57.174;-2.112;2023-03-23T15:56:05;11.10;1.00
25556;DHT22;13447;57.174;-2.112;2023-03-23T15:58:31;11.10;1.00
25556;DHT22;13447;57.174;-2.112;2023-03-23T16:00:59;11.10;1.00
25556;DHT22;13447;57.174;-2.112;2023-03-23T16:03:29;11.10;1.00
25556;DHT22;13447;57.174;-2.112;2023-03-23T16:05:57;11.10;1.00
25556;DHT22;13447;57.174;-2.112;2023-03-23T16:08:28;11.20;1.00
25556;DHT22;13447;57.174;-2.112;2023-03-23T16:10:56;11.10;1.00
25556;DHT22;13447;57.174;-2.112;2023-03-23T16:13:22;11.00;1.00
25556;DHT22;13447;57.174;-2.112;2023-03-23T16:15:49;11.00;1.00
25556;DHT22;13447;57.174;-2.112;2023-03-23T16:18:18;11.10;1.00
25556;DHT22;13447;57.174;-2.112;2023-03-23T16:20:47;11.20;1.00
25556;DHT22;13447;57.174;-2.112;2023-03-23T16:23:14;11.20;1.00
25556;DHT22;13447;57.174;-2.112;2023-03-23T16:25:41;11.20;1.00
25556;DHT22;13447;57.174;-2.112;2023-03-23T16:28:11;11.30;1.00
25556;DHT22;13447;57.174;-2.112;2023-03-23T16:30:39;11.20;1.00
25556;DHT22;13447;57.174;-2.112;2023-03-23T16:33:06;11.20;1.00
25556;DHT22;13447;57.174;-2.112;2023-03-23T16:35:33;11.00;1.00
25556;DHT22;13447;57.174;-2.112;2023-03-23T16:38:01;11.10;1.00
25556;DHT22;13447;57.174;-2.112;2023-03-23T16:40:34;11.10;1.00
25556;DHT22;13447;57.174;-2.112;2023-03-23T16:43:01;11.10;1.00
25556;DHT22;13447;57.174;-2.112;2023-03-23T16:45:35;11.20;1.00
25556;DHT22;13447;57.174;-2.112;2023-03-23T16:48:02;11.10;1.00
25556;DHT22;13447;57.174;-2.112;2023-03-23T16:50:31;11.20;1.00
25556;DHT22;13447;57.174;-2.112;2023-03-23T16:52:58;11.20;1.00
25556;DHT22;13447;57.174;-2.112;2023-03-23T16:55:25;11.20;1.00
25556;DHT22;13447;57.174;-2.112;2023-03-23T16:57:52;11.30;1.00
25556;DHT22;13447;57.174;-2.112;2023-03-23T17:00:31;11.30;1.00
25556;DHT22;13447;57.174;-2.112;2023-03-23T17:02:58;11.20;1.00
25556;DHT22;13447;57.174;-2.112;2023-03-23T17:05:26;11.10;1.00
25556;DHT22;13447;57.174;-2.112;2023-03-23T17:07:53;11.00;1.00
25556;DHT22;13447;57.174;-2.112;2023-03-23T17:10:22;10.90;1.00
25556;DHT22;13447;57.174;-2.112;2023-03-23T17:12:49;10.90;6.00
25556;DHT22;13447;57.174;-2.112;2023-03-23T17:15:16;10.80;1.50
25556;DHT22;13447;57.174;-2.112;2023-03-23T17:17:43;10.70;26.80
25556;DHT22;13447;57.174;-2.112;2023-03-23T17:20:10;10.50;46.70
25556;DHT22;13447;57.174;-2.112;2023-03-23T17:22:38;10.40;60.00
25556;DHT22;13447;57.174;-2.112;2023-03-23T17:25:05;10.20;99.90
25556;DHT22;13447;57.174;-2.112;2023-03-23T17:27:32;10.10;99.90
25556;DHT22;13447;57.174;-2.112;2023-03-23T17:29:59;10.00;99.90
25556;DHT22;13447;57.174;-2.112;2023-03-23T17:32:26;10.00;99.90
25556;DHT22;13447;57.174;-2.112;2023-03-23T17:34:53;9.90;99.90
25556;DHT22;13447;57.174;-2.112;2023-03-23T17:37:20;9.90;99.90
25556;DHT22;13447;57.174;-2.112;2023-03-23T17:39:47;9.80;99.90
25556;DHT22;13447;57.174;-2.112;2023-03-23T17:42:14;9.80;99.90
25556;DHT22;13447;57.174;-2.112;2023-03-23T17:44:41;9.80;99.90
25556;DHT22;13447;57.174;-2.112;2023-03-23T17:47:08;9.80;99.90
25556;DHT22;13447;57.174;-2.112;2023-03-23T17:49:35;9.80;99.90
25556;DHT22;13447;57.174;-2.112;2023-03-23T17:52:02;9.80;99.90
25556;DHT22;13447;57.174;-2.112;2023-03-23T17:54:29;9.80;99.90
25556;DHT22;13447;57.174;-2.112;2023-03-23T17:56:56;9.80;99.90
25556;DHT22;13447;57.174;-2.112;2023-03-23T17:59:24;9.80;99.90
25556;DHT22;13447;57.174;-2.112;2023-03-23T18:01:51;9.80;99.90
25556;DHT22;13447;57.174;-2.112;2023-03-23T18:04:19;9.70;99.90
25556;DHT22;13447;57.174;-2.112;2023-03-23T18:06:45;9.60;99.90
25556;DHT22;13447;57.174;-2.112;2023-03-23T18:09:12;9.60;99.90
25556;DHT22;13447;57.174;-2.112;2023-03-23T18:11:40;9.60;99.90
25556;DHT22;13447;57.174;-2.112;2023-03-23T18:14:07;9.60;99.90
25556;DHT22;13447;57.174;-2.112;2023-03-23T18:16:34;9.50;99.90
25556;DHT22;13447;57.174;-2.112;2023-03-23T18:19:01;9.50;99.90
25556;DHT22;13447;57.174;-2.112;2023-03-23T18:21:27;9.50;99.90
25556;DHT22;13447;57.174;-2.112;2023-03-23T18:23:54;9.50;99.90
25556;DHT22;13447;57.174;-2.112;2023-03-23T18:26:25;9.60;99.90
25556;DHT22;13447;57.174;-2.112;2023-03-23T18:28:52;9.60;99.90
25556;DHT22;13447;57.174;-2.112;2023-03-23T18:31:19;9.70;99.90
25556;DHT22;13447;57.174;-2.112;2023-03-23T18:33:47;9.60;99.90
25556;DHT22;13447;57.174;-2.112;2023-03-23T18:36:15;9.70;99.90
25556;DHT22;13447;57.174;-2.112;2023-03-23T18:38:43;9.70;99.90
25556;DHT22;13447;57.174;-2.112;2023-03-23T18:41:11;9.60;99.90
25556;DHT22;13447;57.174;-2.112;2023-03-23T18:43:38;9.50;99.90
25556;DHT22;13447;57.174;-2.112;2023-03-23T18:46:06;9.50;99.90
25556;DHT22;13447;57.174;-2.112;2023-03-23T18:48:33;9.40;99.90
25556;DHT22;13447;57.174;-2.112;2023-03-23T18:51:01;9.40;99.90
25556;DHT22;13447;57.174;-2.112;2023-03-23T18:53:28;9.30;99.90
25556;DHT22;13447;57.174;-2.112;2023-03-23T18:56:04;9.40;99.90
25556;DHT22;13447;57.174;-2.112;2023-03-23T18:58:32;9.30;99.90
25556;DHT22;13447;57.174;-2.112;2023-03-23T19:01:03;9.40;99.90
25556;DHT22;13447;57.174;-2.112;2023-03-23T19:03:30;9.40;99.90
25556;DHT22;13447;57.174;-2.112;2023-03-23T19:05:57;9.30;99.90
25556;DHT22;13447;57.174;-2.112;2023-03-23T19:08:25;9.30;99.90
25556;DHT22;13447;57.174;-2.112;2023-03-23T19:11:00;9.40;99.90
25556;DHT22;13447;57.174;-2.112;2023-03-23T19:13:28;9.40;99.90
25556;DHT22;13447;57.174;-2.112;2023-03-23T19:15:55;9.40;99.90
25556;DHT22;13447;57.174;-2.112;2023-03-23T19:18:22;9.40;99.90
25556;DHT22;13447;57.174;-2.112;2023-03-23T19:20:49;9.30;99.90
25556;DHT22;13447;57.174;-2.112;2023-03-23T19:23:19;9.30;99.90
25556;DHT22;13447;57.174;-2.112;2023-03-23T19:25:46;9.30;99.90
25556;DHT22;13447;57.174;-2.112;2023-03-23T19:28:13;9.30;99.90
25556;DHT22;13447;57.174;-2.112;2023-03-23T19:30:46;9.30;99.90
25556;DHT22;13447;57.174;-2.112;2023-03-23T19:33:14;9.30;99.90
25556;DHT22;13447;57.174;-2.112;2023-03-23T19:35:41;9.20;99.90
25556;DHT22;13447;57.174;-2.112;2023-03-23T19:38:10;9.10;99.90
25556;DHT22;13447;57.174;-2.112;2023-03-23T19:40:37;9.10;99.90
25556;DHT22;13447;57.174;-2.112;2023-03-23T19:43:07;9.10;99.90
25556;DHT22;13447;57.174;-2.112;2023-03-23T19:45:35;9.00;99.90
25556;DHT22;13447;57.174;-2.112;2023-03-23T19:48:02;9.00;99.90
25556;DHT22;13447;57.174;-2.112;2023-03-23T19:50:29;8.90;99.90
25556;DHT22;13447;57.174;-2.112;2023-03-23T19:52:58;8.90;99.90
25556;DHT22;13447;57.174;-2.112;2023-03-23T19:55:26;8.90;99.90
25556;DHT22;13447;57.174;-2.112;2023-03-23T19:57:53;8.90;99.90
25556;DHT22;13447;57.174;-2.112;2023-03-23T20:00:20;8.80;99.90
25556;DHT22;13447;57.174;-2.112;2023-03-23T20:02:50;8.80;99.90
25556;DHT22;13447;57.174;-2.112;2023-03-23T20:05:17;8.80;99.90
25556;DHT22;13447;57.174;-2.112;2023-03-23T20:07:44;8.70;99.90
25556;DHT22;13447;57.174;-2.112;2023-03-23T20:10:17;8.70;99.90
25556;DHT22;13447;57.174;-2.112;2023-03-23T20:12:44;8.70;99.90
25556;DHT22;13447;57.174;-2.112;2023-03-23T20:15:11;8.60;99.90
25556;DHT22;13447;57.174;-2.112;2023-03-23T20:17:38;8.50;99.90
25556;DHT22;13447;57.174;-2.112;2023-03-23T20:20:05;8.40;99.90
25556;DHT22;13447;57.174;-2.112;2023-03-23T20:22:36;8.40;99.90
25556;DHT22;13447;57.174;-2.112;2023-03-23T20:25:03;8.40;99.90
25556;DHT22;13447;57.174;-2.112;2023-03-23T20:27:30;8.30;99.90
25556;DHT22;13447;57.174;-2.112;2023-03-23T20:29:57;8.20;99.90
25556;DHT22;13447;57.174;-2.112;2023-03-23T20:32:24;8.10;99.90
25556;DHT22;13447;57.174;-2.112;2023-03-23T20:34:51;8.10;99.90
25556;DHT22;13447;57.174;-2.112;2023-03-23T20:37:18;8.00;99.90
25556;DHT22;13447;57.174;-2.112;2023-03-23T20:39:46;7.90;99.90
25556;DHT22;13447;57.174;-2.112;2023-03-23T20:42:14;7.90;99.90
25556;DHT22;13447;57.174;-2.112;2023-03-23T20:44:41;7.80;99.90
25556;DHT22;13447;57.174;-2.112;2023-03-23T20:47:08;7.80;99.90
25556;DHT22;13447;57.174;-2.112;2023-03-23T20:49:36;7.80;99.90
25556;DHT22;13447;57.174;-2.112;2023-03-23T20:52:03;7.80;99.90
25556;DHT22;13447;57.174;-2.112;2023-03-23T20:54:30;7.70;99.90
25556;DHT22;13447;57.174;-2.112;2023-03-23T20:56:57;7.70;99.90
25556;DHT22;13447;57.174;-2.112;2023-03-23T20:59:24;7.70;99.90
25556;DHT22;13447;57.174;-2.112;2023-03-23T21:01:51;7.70;99.90
25556;DHT22;13447;57.174;-2.112;2023-03-23T21:04:19;7.70;99.90
25556;DHT22;13447;57.174;-2.112;2023-03-23T21:06:47;7.60;99.90
25556;DHT22;13447;57.174;-2.112;2023-03-23T21:09:15;7.60;99.90
25556;DHT22;13447;57.174;-2.112;2023-03-23T21:11:42;7.50;99.90
25556;DHT22;13447;57.174;-2.112;2023-03-23T21:14:09;7.40;99.90
25556;DHT22;13447;57.174;-2.112;2023-03-23T21:16:37;7.40;99.90
25556;DHT22;13447;57.174;-2.112;2023-03-23T21:19:04;7.40;99.90
25556;DHT22;13447;57.174;-2.112;2023-03-23T21:21:31;7.30;99.90
25556;DHT22;13447;57.174;-2.112;2023-03-23T21:23:59;7.30;99.90
25556;DHT22;13447;57.174;-2.112;2023-03-23T21:26:27;7.30;99.90
25556;DHT22;13447;57.174;-2.112;2023-03-23T21:28:54;7.30;99.90
25556;DHT22;13447;57.174;-2.112;2023-03-23T21:31:26;7.20;99.90
25556;DHT22;13447;57.174;-2.112;2023-03-23T21:33:56;7.20;99.90
25556;DHT22;13447;57.174;-2.112;2023-03-23T21:36:23;7.20;99.90
25556;DHT22;13447;57.174;-2.112;2023-03-23T21:38:50;7.20;99.90
25556;DHT22;13447;57.174;-2.112;2023-03-23T21:41:18;7.20;99.90
25556;DHT22;13447;57.174;-2.112;2023-03-23T21:43:44;7.30;99.90
25556;DHT22;13447;57.174;-2.112;2023-03-23T21:46:12;7.30;99.90